sensor_id;sensor_type;location;lat;lon;timestamp;P1;durP1;ratioP1;P2;durP2;ratioP2
11655;SDS011;5884;43.618;1.438;2023-11-19T05:47:52;19.20;;;13.77;;
11655;SDS011;5884;43.618;1.438;2023-11-19T05:50:20;19.43;;;13.20;;
11655;SDS011;5884;43.618;1.438;2023-11-19T05:52:47;19.73;;;13.57;;
11655;SDS011;5884;43.618;1.438;2023-11-19T05:55:14;16.30;;;12.77;;
11655;SDS011;5884;43.618;1.438;2023-11-19T05:57:41;17.97;;;13.00;;
11655;SDS011;5884;43.618;1.438;2023-11-19T06:00:09;17.47;;;12.77;;
11655;SDS011;5884;43.618;1.438;2023-11-19T06:02:39;16.43;;;11.53;;
11655;SDS011;5884;43.618;1.438;2023-11-19T06:05:06;17.87;;;11.40;;
11655;SDS011;5884;43.618;1.438;2023-11-19T06:07:34;17.97;;;11.30;;
11655;SDS011;5884;43.618;1.438;2023-11-19T06:10:04;17.97;;;11.60;;
11655;SDS011;5884;43.618;1.438;2023-11-19T06:12:32;15.00;;;11.43;;
11655;SDS011;5884;43.618;1.438;2023-11-19T06:15:03;16.70;;;11.30;;
11655;SDS011;5884;43.618;1.438;2023-11-19T06:17:33;15.20;;;11.37;;
11655;SDS011;5884;43.618;1.438;2023-11-19T06:20:02;16.03;;;11.63;;
11655;SDS011;5884;43.618;1.438;2023-11-19T06:22:30;17.77;;;11.10;;
11655;SDS011;5884;43.618;1.438;2023-11-19T06:24:57;21.20;;;11.87;;
11655;SDS011;5884;43.618;1.438;2023-11-19T06:27:25;15.77;;;12.10;;
11655;SDS011;5884;43.618;1.438;2023-11-19T06:29:52;17.17;;;11.47;;
11655;SDS011;5884;43.618;1.438;2023-11-19T06:32:19;16.83;;;11.53;;
11655;SDS011;5884;43.618;1.438;2023-11-19T06:34:47;17.40;;;13.03;;
11655;SDS011;5884;43.618;1.438;2023-11-19T06:37:15;17.03;;;11.60;;
11655;SDS011;5884;43.618;1.438;2023-11-19T06:39:42;19.33;;;12.97;;
11655;SDS011;5884;43.618;1.438;2023-11-19T06:42:09;16.70;;;12.23;;
11655;SDS011;5884;43.618;1.438;2023-11-19T06:44:37;16.53;;;12.27;;
11655;SDS011;5884;43.618;1.438;2023-11-19T06:47:04;18.70;;;12.87;;
11655;SDS011;5884;43.618;1.438;2023-11-19T06:49:31;17.93;;;12.70;;
11655;SDS011;5884;43.618;1.438;2023-11-19T06:51:58;16.43;;;13.27;;
11655;SDS011;5884;43.618;1.438;2023-11-19T06:54:27;19.03;;;12.50;;
11655;SDS011;5884;43.618;1.438;2023-11-19T06:56:54;16.63;;;12.60;;
11655;SDS011;5884;43.618;1.438;2023-11-19T06:59:22;18.60;;;12.83;;
11655;SDS011;5884;43.618;1.438;2023-11-19T07:01:49;18.43;;;13.37;;
11655;SDS011;5884;43.618;1.438;2023-11-19T07:04:16;19.70;;;13.03;;
11655;SDS011;5884;43.618;1.438;2023-11-19T07:06:44;17.20;;;12.53;;
11655;SDS011;5884;43.618;1.438;2023-11-19T07:09:11;18.33;;;13.13;;
11655;SDS011;5884;43.618;1.438;2023-11-19T07:11:40;17.40;;;13.40;;
11655;SDS011;5884;43.618;1.438;2023-11-19T07:14:09;15.67;;;12.47;;
11655;SDS011;5884;43.618;1.438;2023-11-19T07:16:36;17.33;;;12.50;;
11655;SDS011;5884;43.618;1.438;2023-11-19T07:19:04;16.47;;;13.53;;
11655;SDS011;5884;43.618;1.438;2023-11-19T07:21:32;18.70;;;12.90;;
11655;SDS011;5884;43.618;1.438;2023-11-19T07:23:59;17.57;;;11.97;;
11655;SDS011;5884;43.618;1.438;2023-11-19T07:26:26;18.73;;;13.13;;
11655;SDS011;5884;43.618;1.438;2023-11-19T07:28:55;17.40;;;13.00;;
11655;SDS011;5884;43.618;1.438;2023-11-19T07:31:23;20.70;;;13.00;;
11655;SDS011;5884;43.618;1.438;2023-11-19T07:33:50;17.03;;;13.30;;
11655;SDS011;5884;43.618;1.438;2023-11-19T07:36:17;17.77;;;12.43;;
11655;SDS011;5884;43.618;1.438;2023-11-19T07:38:45;20.10;;;13.13;;
11655;SDS011;5884;43.618;1.438;2023-11-19T07:41:12;21.50;;;13.93;;
11655;SDS011;5884;43.618;1.438;2023-11-19T07:43:40;19.47;;;14.10;;
11655;SDS011;5884;43.618;1.438;2023-11-19T07:46:13;18.27;;;13.67;;
11655;SDS011;5884;43.618;1.438;2023-11-19T07:48:41;19.23;;;13.37;;
11655;SDS011;5884;43.618;1.438;2023-11-19T07:51:08;16.30;;;12.87;;
11655;SDS011;5884;43.618;1.438;2023-11-19T07:53:37;20.20;;;12.80;;
11655;SDS011;5884;43.618;1.438;2023-11-19T07:56:06;20.53;;;13.77;;
11655;SDS011;5884;43.618;1.438;2023-11-19T07:58:34;17.47;;;13.17;;
11655;SDS011;5884;43.618;1.438;2023-11-19T08:01:01;17.97;;;12.43;;
11655;SDS011;5884;43.618;1.438;2023-11-19T08:03:30;17.30;;;13.20;;
11655;SDS011;5884;43.618;1.438;2023-11-19T08:05:59;16.57;;;13.03;;
11655;SDS011;5884;43.618;1.438;2023-11-19T08:08:27;19.90;;;13.30;;
11655;SDS011;5884;43.618;1.438;2023-11-19T08:10:55;19.97;;;13.43;;
11655;SDS011;5884;43.618;1.438;2023-11-19T08:13:23;21.07;;;14.43;;
11655;SDS011;5884;43.618;1.438;2023-11-19T08:15:50;23.23;;;14.57;;
11655;SDS011;5884;43.618;1.438;2023-11-19T08:18:17;16.73;;;14.23;;
11655;SDS011;5884;43.618;1.438;2023-11-19T08:20:46;21.70;;;13.83;;
11655;SDS011;5884;43.618;1.438;2023-11-19T08:23:17;20.33;;;14.37;;
11655;SDS011;5884;43.618;1.438;2023-11-19T08:25:44;16.40;;;14.07;;
11655;SDS011;5884;43.618;1.438;2023-11-19T08:28:12;19.27;;;13.30;;
11655;SDS011;5884;43.618;1.438;2023-11-19T08:30:39;17.87;;;12.57;;
11655;SDS011;5884;43.618;1.438;2023-11-19T08:33:06;15.00;;;11.63;;
11655;SDS011;5884;43.618;1.438;2023-11-19T08:35:33;15.07;;;11.60;;
11655;SDS011;5884;43.618;1.438;2023-11-19T08:38:01;13.67;;;11.03;;
11655;SDS011;5884;43.618;1.438;2023-11-19T08:40:29;15.43;;;11.50;;
11655;SDS011;5884;43.618;1.438;2023-11-19T08:42:56;17.63;;;11.13;;
11655;SDS011;5884;43.618;1.438;2023-11-19T08:45:24;14.80;;;11.13;;
11655;SDS011;5884;43.618;1.438;2023-11-19T08:47:52;16.17;;;11.03;;
11655;SDS011;5884;43.618;1.438;2023-11-19T08:50:19;19.13;;;12.00;;
11655;SDS011;5884;43.618;1.438;2023-11-19T08:52:46;15.93;;;11.33;;
11655;SDS011;5884;43.618;1.438;2023-11-19T08:55:14;14.40;;;11.10;;
11655;SDS011;5884;43.618;1.438;2023-11-19T08:57:42;19.20;;;11.50;;
11655;SDS011;5884;43.618;1.438;2023-11-19T09:00:10;16.20;;;11.73;;
11655;SDS011;5884;43.618;1.438;2023-11-19T09:02:39;14.73;;;10.80;;
11655;SDS011;5884;43.618;1.438;2023-11-19T09:05:08;16.27;;;11.00;;
11655;SDS011;5884;43.618;1.438;2023-11-19T09:07:35;16.07;;;10.13;;
11655;SDS011;5884;43.618;1.438;2023-11-19T09:10:02;13.17;;;9.50;;
11655;SDS011;5884;43.618;1.438;2023-11-19T09:12:32;14.23;;;10.87;;
11655;SDS011;5884;43.618;1.438;2023-11-19T09:14:59;15.30;;;10.50;;
11655;SDS011;5884;43.618;1.438;2023-11-19T09:17:26;14.50;;;10.00;;
11655;SDS011;5884;43.618;1.438;2023-11-19T09:19:53;14.90;;;10.53;;
11655;SDS011;5884;43.618;1.438;2023-11-19T09:22:20;13.63;;;9.67;;
11655;SDS011;5884;43.618;1.438;2023-11-19T09:24:47;13.17;;;8.73;;
11655;SDS011;5884;43.618;1.438;2023-11-19T09:27:15;14.50;;;9.40;;
11655;SDS011;5884;43.618;1.438;2023-11-19T09:29:43;13.23;;;8.77;;
11655;SDS011;5884;43.618;1.438;2023-11-19T09:32:11;12.83;;;8.47;;
11655;SDS011;5884;43.618;1.438;2023-11-19T09:34:38;14.13;;;8.50;;
11655;SDS011;5884;43.618;1.438;2023-11-19T09:37:06;12.50;;;8.63;;
11655;SDS011;5884;43.618;1.438;2023-11-19T09:39:33;11.03;;;8.60;;
11655;SDS011;5884;43.618;1.438;2023-11-19T09:42:00;12.40;;;8.87;;
11655;SDS011;5884;43.618;1.438;2023-11-19T09:44:27;11.17;;;8.70;;
11655;SDS011;5884;43.618;1.438;2023-11-19T09:46:55;12.63;;;8.07;;
11655;SDS011;5884;43.618;1.438;2023-11-19T09:49:24;13.23;;;8.50;;
11655;SDS011;5884;43.618;1.438;2023-11-19T09:51:53;11.00;;;7.80;;
11655;SDS011;5884;43.618;1.438;2023-11-19T09:54:20;9.87;;;7.57;;
11655;SDS011;5884;43.618;1.438;2023-11-19T09:56:47;12.53;;;7.57;;
11655;SDS011;5884;43.618;1.438;2023-11-19T09:59:16;12.73;;;7.40;;
11655;SDS011;5884;43.618;1.438;2023-11-19T10:01:44;13.87;;;7.43;;
11655;SDS011;5884;43.618;1.438;2023-11-19T10:04:15;17.03;;;8.23;;
11655;SDS011;5884;43.618;1.438;2023-11-19T10:06:43;11.63;;;7.60;;
11655;SDS011;5884;43.618;1.438;2023-11-19T10:09:11;11.60;;;8.00;;
11655;SDS011;5884;43.618;1.438;2023-11-19T10:11:40;11.67;;;8.03;;
11655;SDS011;5884;43.618;1.438;2023-11-19T10:14:07;11.50;;;8.30;;
11655;SDS011;5884;43.618;1.438;2023-11-19T10:16:35;13.60;;;8.87;;
11655;SDS011;5884;43.618;1.438;2023-11-19T10:19:03;11.83;;;8.87;;
11655;SDS011;5884;43.618;1.438;2023-11-19T10:21:33;11.80;;;8.50;;
11655;SDS011;5884;43.618;1.438;2023-11-19T10:24:01;10.27;;;8.47;;
11655;SDS011;5884;43.618;1.438;2023-11-19T10:26:29;10.60;;;8.07;;
11655;SDS011;5884;43.618;1.438;2023-11-19T10:28:56;12.03;;;7.60;;
11655;SDS011;5884;43.618;1.438;2023-11-19T10:31:23;12.70;;;8.50;;
11655;SDS011;5884;43.618;1.438;2023-11-19T10:33:51;11.57;;;8.57;;
11655;SDS011;5884;43.618;1.438;2023-11-19T10:36:19;16.73;;;8.73;;
11655;SDS011;5884;43.618;1.438;2023-11-19T10:38:52;11.97;;;8.20;;
11655;SDS011;5884;43.618;1.438;2023-11-19T10:41:26;12.83;;;8.17;;
11655;SDS011;5884;43.618;1.438;2023-11-19T10:43:54;12.03;;;8.80;;
11655;SDS011;5884;43.618;1.438;2023-11-19T10:46:21;11.47;;;8.90;;
11655;SDS011;5884;43.618;1.438;2023-11-19T10:48:49;16.27;;;8.87;;
11655;SDS011;5884;43.618;1.438;2023-11-19T10:51:18;11.60;;;8.60;;
11655;SDS011;5884;43.618;1.438;2023-11-19T10:53:48;12.83;;;8.00;;
11655;SDS011;5884;43.618;1.438;2023-11-19T10:56:18;12.73;;;8.43;;
11655;SDS011;5884;43.618;1.438;2023-11-19T10:58:50;10.70;;;8.60;;
11655;SDS011;5884;43.618;1.438;2023-11-19T11:01:20;12.90;;;8.27;;
11655;SDS011;5884;43.618;1.438;2023-11-19T11:03:50;9.77;;;7.73;;
11655;SDS011;5884;43.618;1.438;2023-11-19T11:06:19;10.47;;;8.00;;
11655;SDS011;5884;43.618;1.438;2023-11-19T11:08:48;11.93;;;8.57;;
11655;SDS011;5884;43.618;1.438;2023-11-19T11:11:17;12.17;;;8.60;;
11655;SDS011;5884;43.618;1.438;2023-11-19T11:13:46;10.83;;;8.30;;
11655;SDS011;5884;43.618;1.438;2023-11-19T11:16:16;12.23;;;7.90;;
11655;SDS011;5884;43.618;1.438;2023-11-19T11:18:46;12.20;;;8.17;;
11655;SDS011;5884;43.618;1.438;2023-11-19T11:21:15;12.73;;;9.13;;
11655;SDS011;5884;43.618;1.438;2023-11-19T11:26:59;16.37;;;9.03;;
11655;SDS011;5884;43.618;1.438;2023-11-19T11:29:59;14.53;;;8.50;;
11655;SDS011;5884;43.618;1.438;2023-11-19T11:32:41;14.10;;;7.87;;
11655;SDS011;5884;43.618;1.438;2023-11-19T11:35:22;9.50;;;8.03;;
11655;SDS011;5884;43.618;1.438;2023-11-19T11:38:00;12.23;;;8.10;;
11655;SDS011;5884;43.618;1.438;2023-11-19T11:40:30;11.17;;;7.97;;
11655;SDS011;5884;43.618;1.438;2023-11-19T11:42:58;11.70;;;8.13;;
11655;SDS011;5884;43.618;1.438;2023-11-19T11:45:35;11.40;;;8.30;;
11655;SDS011;5884;43.618;1.438;2023-11-19T11:48:09;10.90;;;8.13;;
11655;SDS011;5884;43.618;1.438;2023-11-19T11:50:47;11.83;;;7.67;;
11655;SDS011;5884;43.618;1.438;2023-11-19T11:53:17;9.47;;;6.03;;
11655;SDS011;5884;43.618;1.438;2023-11-19T11:55:52;9.27;;;5.53;;
11655;SDS011;5884;43.618;1.438;2023-11-19T11:58:35;9.10;;;6.10;;
11655;SDS011;5884;43.618;1.438;2023-11-19T12:01:07;7.10;;;5.33;;
11655;SDS011;5884;43.618;1.438;2023-11-19T12:03:34;5.80;;;4.27;;
11655;SDS011;5884;43.618;1.438;2023-11-19T12:06:04;6.53;;;4.27;;
11655;SDS011;5884;43.618;1.438;2023-11-19T12:08:33;7.53;;;5.10;;
11655;SDS011;5884;43.618;1.438;2023-11-19T12:11:01;8.80;;;5.67;;
11655;SDS011;5884;43.618;1.438;2023-11-19T12:13:42;11.73;;;6.57;;
11655;SDS011;5884;43.618;1.438;2023-11-19T12:16:20;9.70;;;5.97;;
11655;SDS011;5884;43.618;1.438;2023-11-19T12:18:48;7.80;;;5.43;;
11655;SDS011;5884;43.618;1.438;2023-11-19T12:21:27;10.57;;;5.63;;
11655;SDS011;5884;43.618;1.438;2023-11-19T12:23:55;11.43;;;6.87;;
11655;SDS011;5884;43.618;1.438;2023-11-19T12:26:35;10.23;;;6.00;;
11655;SDS011;5884;43.618;1.438;2023-11-19T12:29:05;7.83;;;5.83;;
11655;SDS011;5884;43.618;1.438;2023-11-19T12:31:33;8.93;;;5.80;;
11655;SDS011;5884;43.618;1.438;2023-11-19T12:34:06;6.97;;;5.23;;
11655;SDS011;5884;43.618;1.438;2023-11-19T12:36:36;8.70;;;5.77;;
11655;SDS011;5884;43.618;1.438;2023-11-19T12:39:06;7.00;;;5.80;;
11655;SDS011;5884;43.618;1.438;2023-11-19T12:41:48;7.47;;;5.10;;
11655;SDS011;5884;43.618;1.438;2023-11-19T12:44:20;7.67;;;5.43;;
11655;SDS011;5884;43.618;1.438;2023-11-19T12:47:01;9.33;;;5.17;;
11655;SDS011;5884;43.618;1.438;2023-11-19T12:49:31;6.87;;;5.17;;
11655;SDS011;5884;43.618;1.438;2023-11-19T12:51:58;6.90;;;5.13;;
11655;SDS011;5884;43.618;1.438;2023-11-19T12:54:32;6.90;;;5.03;;
11655;SDS011;5884;43.618;1.438;2023-11-19T12:57:01;7.67;;;4.83;;
11655;SDS011;5884;43.618;1.438;2023-11-19T12:59:31;8.93;;;4.93;;
11655;SDS011;5884;43.618;1.438;2023-11-19T13:01:58;8.60;;;5.07;;
11655;SDS011;5884;43.618;1.438;2023-11-19T13:04:27;10.70;;;4.97;;
11655;SDS011;5884;43.618;1.438;2023-11-19T13:06:55;9.87;;;5.10;;
11655;SDS011;5884;43.618;1.438;2023-11-19T13:09:23;6.47;;;5.10;;
11655;SDS011;5884;43.618;1.438;2023-11-19T13:11:50;8.07;;;4.77;;
11655;SDS011;5884;43.618;1.438;2023-11-19T13:14:18;8.83;;;5.30;;
11655;SDS011;5884;43.618;1.438;2023-11-19T13:16:47;6.00;;;4.20;;
11655;SDS011;5884;43.618;1.438;2023-11-19T13:19:14;9.60;;;5.30;;
11655;SDS011;5884;43.618;1.438;2023-11-19T13:21:43;6.50;;;4.20;;
11655;SDS011;5884;43.618;1.438;2023-11-19T13:24:12;9.03;;;4.90;;
11655;SDS011;5884;43.618;1.438;2023-11-19T13:26:39;5.57;;;4.13;;
11655;SDS011;5884;43.618;1.438;2023-11-19T13:29:06;8.10;;;4.53;;
11655;SDS011;5884;43.618;1.438;2023-11-19T13:31:35;9.23;;;4.63;;
11655;SDS011;5884;43.618;1.438;2023-11-19T13:34:04;6.33;;;4.23;;
11655;SDS011;5884;43.618;1.438;2023-11-19T13:36:32;8.53;;;4.30;;
11655;SDS011;5884;43.618;1.438;2023-11-19T13:39:00;9.07;;;4.47;;
11655;SDS011;5884;43.618;1.438;2023-11-19T13:41:27;7.77;;;4.50;;
11655;SDS011;5884;43.618;1.438;2023-11-19T13:43:54;8.47;;;4.10;;
11655;SDS011;5884;43.618;1.438;2023-11-19T13:46:21;7.20;;;3.77;;
11655;SDS011;5884;43.618;1.438;2023-11-19T13:48:49;8.53;;;3.80;;
11655;SDS011;5884;43.618;1.438;2023-11-19T13:51:17;6.63;;;4.30;;
11655;SDS011;5884;43.618;1.438;2023-11-19T13:53:45;6.93;;;4.00;;
11655;SDS011;5884;43.618;1.438;2023-11-19T13:56:12;5.93;;;3.87;;
11655;SDS011;5884;43.618;1.438;2023-11-19T13:58:39;8.63;;;4.63;;
11655;SDS011;5884;43.618;1.438;2023-11-19T14:01:06;8.53;;;4.10;;
11655;SDS011;5884;43.618;1.438;2023-11-19T14:03:33;7.40;;;4.03;;
11655;SDS011;5884;43.618;1.438;2023-11-19T14:06:00;8.70;;;3.77;;
11655;SDS011;5884;43.618;1.438;2023-11-19T14:08:29;5.00;;;3.30;;
11655;SDS011;5884;43.618;1.438;2023-11-19T14:10:56;8.00;;;3.40;;
11655;SDS011;5884;43.618;1.438;2023-11-19T14:13:24;7.10;;;3.20;;
11655;SDS011;5884;43.618;1.438;2023-11-19T14:15:51;4.67;;;3.10;;
11655;SDS011;5884;43.618;1.438;2023-11-19T14:18:19;5.03;;;2.60;;
11655;SDS011;5884;43.618;1.438;2023-11-19T14:20:46;6.23;;;2.57;;
11655;SDS011;5884;43.618;1.438;2023-11-19T14:23:13;9.40;;;3.20;;
11655;SDS011;5884;43.618;1.438;2023-11-19T14:25:41;5.37;;;3.07;;
11655;SDS011;5884;43.618;1.438;2023-11-19T14:28:09;4.17;;;2.87;;
11655;SDS011;5884;43.618;1.438;2023-11-19T14:30:37;6.17;;;3.00;;
11655;SDS011;5884;43.618;1.438;2023-11-19T14:33:06;4.70;;;2.70;;
11655;SDS011;5884;43.618;1.438;2023-11-19T14:35:33;4.40;;;2.60;;
11655;SDS011;5884;43.618;1.438;2023-11-19T14:38:00;4.03;;;2.57;;
11655;SDS011;5884;43.618;1.438;2023-11-19T14:40:30;4.70;;;2.37;;
11655;SDS011;5884;43.618;1.438;2023-11-19T14:42:58;3.70;;;2.63;;
11655;SDS011;5884;43.618;1.438;2023-11-19T14:45:25;5.73;;;3.00;;
11655;SDS011;5884;43.618;1.438;2023-11-19T14:47:53;4.47;;;2.63;;
11655;SDS011;5884;43.618;1.438;2023-11-19T14:50:20;5.00;;;2.83;;
11655;SDS011;5884;43.618;1.438;2023-11-19T14:52:47;5.00;;;2.77;;
11655;SDS011;5884;43.618;1.438;2023-11-19T14:55:14;4.83;;;2.90;;
11655;SDS011;5884;43.618;1.438;2023-11-19T14:57:41;5.47;;;2.83;;
11655;SDS011;5884;43.618;1.438;2023-11-19T15:00:11;5.33;;;2.60;;
11655;SDS011;5884;43.618;1.438;2023-11-19T15:02:40;8.33;;;2.97;;
11655;SDS011;5884;43.618;1.438;2023-11-19T15:05:07;3.87;;;2.53;;
11655;SDS011;5884;43.618;1.438;2023-11-19T15:07:36;6.27;;;2.87;;
11655;SDS011;5884;43.618;1.438;2023-11-19T15:10:03;4.93;;;2.43;;
11655;SDS011;5884;43.618;1.438;2023-11-19T15:12:35;4.20;;;2.57;;
11655;SDS011;5884;43.618;1.438;2023-11-19T15:15:05;5.53;;;2.70;;
11655;SDS011;5884;43.618;1.438;2023-11-19T15:17:36;7.10;;;2.37;;
11655;SDS011;5884;43.618;1.438;2023-11-19T15:20:03;3.33;;;2.37;;
11655;SDS011;5884;43.618;1.438;2023-11-19T15:22:31;6.07;;;2.40;;
11655;SDS011;5884;43.618;1.438;2023-11-19T15:24:58;4.40;;;2.30;;
11655;SDS011;5884;43.618;1.438;2023-11-19T15:27:26;4.70;;;2.60;;
11655;SDS011;5884;43.618;1.438;2023-11-19T15:29:54;5.57;;;2.40;;
11655;SDS011;5884;43.618;1.438;2023-11-19T15:32:21;6.87;;;2.97;;
11655;SDS011;5884;43.618;1.438;2023-11-19T15:34:49;4.10;;;3.30;;
11655;SDS011;5884;43.618;1.438;2023-11-19T15:37:17;4.67;;;2.93;;
11655;SDS011;5884;43.618;1.438;2023-11-19T15:39:45;5.17;;;3.10;;
11655;SDS011;5884;43.618;1.438;2023-11-19T15:42:12;5.23;;;3.70;;
11655;SDS011;5884;43.618;1.438;2023-11-19T15:44:40;4.33;;;3.43;;
11655;SDS011;5884;43.618;1.438;2023-11-19T15:47:08;6.30;;;3.73;;
11655;SDS011;5884;43.618;1.438;2023-11-19T15:49:35;6.00;;;3.37;;
11655;SDS011;5884;43.618;1.438;2023-11-19T15:52:04;7.57;;;3.90;;
11655;SDS011;5884;43.618;1.438;2023-11-19T15:54:31;6.30;;;3.60;;
11655;SDS011;5884;43.618;1.438;2023-11-19T15:56:59;4.93;;;3.40;;
11655;SDS011;5884;43.618;1.438;2023-11-19T15:59:26;5.47;;;3.27;;
11655;SDS011;5884;43.618;1.438;2023-11-19T16:01:54;7.43;;;3.57;;
11655;SDS011;5884;43.618;1.438;2023-11-19T16:04:21;8.07;;;3.23;;
11655;SDS011;5884;43.618;1.438;2023-11-19T16:06:49;5.40;;;3.60;;
11655;SDS011;5884;43.618;1.438;2023-11-19T16:09:18;7.10;;;3.30;;
11655;SDS011;5884;43.618;1.438;2023-11-19T16:11:47;5.80;;;3.27;;
11655;SDS011;5884;43.618;1.438;2023-11-19T16:14:14;5.60;;;3.80;;
11655;SDS011;5884;43.618;1.438;2023-11-19T16:16:41;8.03;;;3.30;;
11655;SDS011;5884;43.618;1.438;2023-11-19T16:19:09;5.47;;;3.63;;
11655;SDS011;5884;43.618;1.438;2023-11-19T16:21:36;6.87;;;3.23;;
11655;SDS011;5884;43.618;1.438;2023-11-19T16:24:03;4.80;;;3.87;;
11655;SDS011;5884;43.618;1.438;2023-11-19T16:26:33;6.30;;;4.70;;
11655;SDS011;5884;43.618;1.438;2023-11-19T16:29:01;9.57;;;6.60;;
11655;SDS011;5884;43.618;1.438;2023-11-19T16:31:29;10.93;;;8.17;;
11655;SDS011;5884;43.618;1.438;2023-11-19T16:33:56;14.73;;;11.80;;
11655;SDS011;5884;43.618;1.438;2023-11-19T16:36:25;11.37;;;8.23;;
11655;SDS011;5884;43.618;1.438;2023-11-19T16:38:52;11.63;;;7.83;;
11655;SDS011;5884;43.618;1.438;2023-11-19T16:41:20;10.70;;;8.20;;
11655;SDS011;5884;43.618;1.438;2023-11-19T16:43:49;11.10;;;8.27;;
11655;SDS011;5884;43.618;1.438;2023-11-19T16:46:18;12.17;;;7.93;;
11655;SDS011;5884;43.618;1.438;2023-11-19T16:48:45;16.10;;;7.97;;
11655;SDS011;5884;43.618;1.438;2023-11-19T16:51:13;9.50;;;7.30;;
11655;SDS011;5884;43.618;1.438;2023-11-19T16:53:44;10.33;;;6.70;;
11655;SDS011;5884;43.618;1.438;2023-11-19T16:56:12;11.03;;;6.40;;
11655;SDS011;5884;43.618;1.438;2023-11-19T16:58:39;10.33;;;7.30;;
11655;SDS011;5884;43.618;1.438;2023-11-19T17:01:09;10.70;;;6.87;;
11655;SDS011;5884;43.618;1.438;2023-11-19T17:03:39;15.87;;;6.73;;
11655;SDS011;5884;43.618;1.438;2023-11-19T17:06:06;13.57;;;7.13;;
11655;SDS011;5884;43.618;1.438;2023-11-19T17:08:34;13.40;;;8.07;;
11655;SDS011;5884;43.618;1.438;2023-11-19T17:11:03;9.50;;;6.77;;
11655;SDS011;5884;43.618;1.438;2023-11-19T17:13:32;10.23;;;7.27;;
11655;SDS011;5884;43.618;1.438;2023-11-19T17:15:59;12.13;;;7.23;;
11655;SDS011;5884;43.618;1.438;2023-11-19T17:18:28;11.53;;;8.57;;
11655;SDS011;5884;43.618;1.438;2023-11-19T17:20:55;14.63;;;9.00;;
11655;SDS011;5884;43.618;1.438;2023-11-19T17:23:23;13.53;;;8.07;;
11655;SDS011;5884;43.618;1.438;2023-11-19T17:25:51;12.07;;;8.37;;
11655;SDS011;5884;43.618;1.438;2023-11-19T17:28:18;10.53;;;8.13;;
11655;SDS011;5884;43.618;1.438;2023-11-19T17:30:45;11.47;;;8.80;;
11655;SDS011;5884;43.618;1.438;2023-11-19T17:33:12;11.87;;;8.53;;
11655;SDS011;5884;43.618;1.438;2023-11-19T17:35:41;12.97;;;9.23;;
11655;SDS011;5884;43.618;1.438;2023-11-19T17:38:08;12.83;;;8.53;;
11655;SDS011;5884;43.618;1.438;2023-11-19T17:40:35;15.00;;;10.17;;
11655;SDS011;5884;43.618;1.438;2023-11-19T17:43:02;15.43;;;10.87;;
11655;SDS011;5884;43.618;1.438;2023-11-19T17:45:29;20.73;;;13.73;;
11655;SDS011;5884;43.618;1.438;2023-11-19T17:47:57;17.70;;;12.67;;
11655;SDS011;5884;43.618;1.438;2023-11-19T17:50:24;18.53;;;12.77;;
11655;SDS011;5884;43.618;1.438;2023-11-19T17:52:52;19.43;;;13.37;;
11655;SDS011;5884;43.618;1.438;2023-11-19T17:55:19;17.90;;;13.53;;
11655;SDS011;5884;43.618;1.438;2023-11-19T17:57:47;19.90;;;13.87;;
11655;SDS011;5884;43.618;1.438;2023-11-19T18:00:16;22.10;;;13.77;;
11655;SDS011;5884;43.618;1.438;2023-11-19T18:02:44;19.70;;;13.90;;
11655;SDS011;5884;43.618;1.438;2023-11-19T18:05:13;21.50;;;15.37;;
11655;SDS011;5884;43.618;1.438;2023-11-19T18:07:41;22.57;;;15.63;;
11655;SDS011;5884;43.618;1.438;2023-11-19T18:10:10;21.87;;;16.50;;
11655;SDS011;5884;43.618;1.438;2023-11-19T18:12:37;25.67;;;16.40;;
11655;SDS011;5884;43.618;1.438;2023-11-19T18:15:05;22.37;;;16.17;;
11655;SDS011;5884;43.618;1.438;2023-11-19T18:17:33;25.33;;;16.80;;
11655;SDS011;5884;43.618;1.438;2023-11-19T18:20:02;24.13;;;18.10;;
11655;SDS011;5884;43.618;1.438;2023-11-19T18:22:31;22.83;;;18.03;;
11655;SDS011;5884;43.618;1.438;2023-11-19T18:24:58;32.80;;;23.43;;
11655;SDS011;5884;43.618;1.438;2023-11-19T18:27:27;38.10;;;26.80;;
11655;SDS011;5884;43.618;1.438;2023-11-19T18:29:54;32.87;;;26.20;;
11655;SDS011;5884;43.618;1.438;2023-11-19T18:32:21;34.27;;;24.93;;
11655;SDS011;5884;43.618;1.438;2023-11-19T18:34:49;33.60;;;26.00;;
11655;SDS011;5884;43.618;1.438;2023-11-19T18:37:16;32.00;;;25.43;;
11655;SDS011;5884;43.618;1.438;2023-11-19T18:39:43;34.50;;;24.60;;
11655;SDS011;5884;43.618;1.438;2023-11-19T18:42:10;34.77;;;25.50;;
11655;SDS011;5884;43.618;1.438;2023-11-19T18:44:38;34.60;;;24.43;;
11655;SDS011;5884;43.618;1.438;2023-11-19T18:47:05;31.27;;;24.70;;
11655;SDS011;5884;43.618;1.438;2023-11-19T18:49:33;33.73;;;25.10;;
11655;SDS011;5884;43.618;1.438;2023-11-19T18:52:01;32.43;;;24.50;;
11655;SDS011;5884;43.618;1.438;2023-11-19T18:54:28;30.93;;;24.03;;
11655;SDS011;5884;43.618;1.438;2023-11-19T18:56:55;33.57;;;25.20;;
11655;SDS011;5884;43.618;1.438;2023-11-19T18:59:22;32.10;;;24.27;;
11655;SDS011;5884;43.618;1.438;2023-11-19T19:01:51;32.77;;;24.97;;
11655;SDS011;5884;43.618;1.438;2023-11-19T19:04:18;39.10;;;26.43;;
11655;SDS011;5884;43.618;1.438;2023-11-19T19:06:47;34.77;;;25.17;;
11655;SDS011;5884;43.618;1.438;2023-11-19T19:09:14;38.77;;;25.23;;
11655;SDS011;5884;43.618;1.438;2023-11-19T19:11:43;34.93;;;25.27;;
11655;SDS011;5884;43.618;1.438;2023-11-19T19:14:12;36.77;;;26.40;;
11655;SDS011;5884;43.618;1.438;2023-11-19T19:16:40;34.57;;;25.40;;
11655;SDS011;5884;43.618;1.438;2023-11-19T19:19:08;37.63;;;26.90;;
11655;SDS011;5884;43.618;1.438;2023-11-19T19:21:35;35.23;;;26.23;;
11655;SDS011;5884;43.618;1.438;2023-11-19T19:24:03;36.57;;;27.57;;
11655;SDS011;5884;43.618;1.438;2023-11-19T19:26:33;36.43;;;26.47;;
11655;SDS011;5884;43.618;1.438;2023-11-19T19:29:01;37.10;;;28.67;;
11655;SDS011;5884;43.618;1.438;2023-11-19T19:31:29;37.07;;;28.40;;
11655;SDS011;5884;43.618;1.438;2023-11-19T19:33:56;37.33;;;28.77;;
11655;SDS011;5884;43.618;1.438;2023-11-19T19:36:25;37.23;;;28.20;;
11655;SDS011;5884;43.618;1.438;2023-11-19T19:38:53;35.40;;;28.03;;
11655;SDS011;5884;43.618;1.438;2023-11-19T19:41:20;42.17;;;29.87;;
11655;SDS011;5884;43.618;1.438;2023-11-19T19:43:48;38.27;;;29.23;;
11655;SDS011;5884;43.618;1.438;2023-11-19T19:46:15;35.83;;;28.80;;
11655;SDS011;5884;43.618;1.438;2023-11-19T19:48:42;38.00;;;29.43;;
11655;SDS011;5884;43.618;1.438;2023-11-19T19:51:10;41.80;;;31.23;;
11655;SDS011;5884;43.618;1.438;2023-11-19T19:53:38;56.60;;;41.30;;
11655;SDS011;5884;43.618;1.438;2023-11-19T19:56:07;54.60;;;39.73;;
11655;SDS011;5884;43.618;1.438;2023-11-19T19:58:35;58.30;;;42.67;;
11655;SDS011;5884;43.618;1.438;2023-11-19T20:01:04;57.70;;;42.93;;
11655;SDS011;5884;43.618;1.438;2023-11-19T20:03:33;59.87;;;43.30;;
11655;SDS011;5884;43.618;1.438;2023-11-19T20:06:00;58.30;;;43.70;;
11655;SDS011;5884;43.618;1.438;2023-11-19T20:08:29;61.23;;;43.77;;
11655;SDS011;5884;43.618;1.438;2023-11-19T20:10:58;66.93;;;47.50;;
11655;SDS011;5884;43.618;1.438;2023-11-19T20:13:25;71.03;;;51.47;;
11655;SDS011;5884;43.618;1.438;2023-11-19T20:15:53;105.30;;;77.43;;
11655;SDS011;5884;43.618;1.438;2023-11-19T20:18:20;106.93;;;76.73;;
11655;SDS011;5884;43.618;1.438;2023-11-19T20:20:47;96.77;;;72.20;;
11655;SDS011;5884;43.618;1.438;2023-11-19T20:23:14;90.47;;;64.60;;
11655;SDS011;5884;43.618;1.438;2023-11-19T20:25:42;98.57;;;68.87;;
11655;SDS011;5884;43.618;1.438;2023-11-19T20:28:10;99.73;;;72.90;;
11655;SDS011;5884;43.618;1.438;2023-11-19T20:30:37;103.33;;;74.97;;
11655;SDS011;5884;43.618;1.438;2023-11-19T20:33:06;96.97;;;69.33;;
11655;SDS011;5884;43.618;1.438;2023-11-19T20:35:33;108.87;;;79.17;;
11655;SDS011;5884;43.618;1.438;2023-11-19T20:38:00;147.40;;;106.23;;
11655;SDS011;5884;43.618;1.438;2023-11-19T20:40:28;144.47;;;105.73;;
11655;SDS011;5884;43.618;1.438;2023-11-19T20:42:56;143.90;;;107.33;;